sensor_id;sensor_type;location;lat;lon;timestamp;temperature;humidity
50989;DHT22;37008;52.210;21.112;2023-04-24T00:00:41;9.20;80.20
50989;DHT22;37008;52.210;21.112;2023-04-24T00:03:06;9.10;81.00
50989;DHT22;37008;52.210;21.112;2023-04-24T00:05:32;9.00;81.70
50989;DHT22;37008;52.210;21.112;2023-04-24T00:07:58;9.00;82.90
50989;DHT22;37008;52.210;21.112;2023-04-24T00:10:23;8.90;83.80
50989;DHT22;37008;52.210;21.112;2023-04-24T00:12:49;8.90;84.40
50989;DHT22;37008;52.210;21.112;2023-04-24T00:15:15;8.90;85.10
50989;DHT22;37008;52.210;21.112;2023-04-24T00:17:41;8.80;85.70
50989;DHT22;37008;52.210;21.112;2023-04-24T00:20:07;8.70;86.20
50989;DHT22;37008;52.210;21.112;2023-04-24T00:22:33;8.70;87.10
50989;DHT22;37008;52.210;21.112;2023-04-24T00:24:59;8.60;87.90
50989;DHT22;37008;52.210;21.112;2023-04-24T00:27:24;8.60;88.90
50989;DHT22;37008;52.210;21.112;2023-04-24T00:29:50;8.60;89.80
50989;DHT22;37008;52.210;21.112;2023-04-24T00:32:16;8.60;90.30
50989;DHT22;37008;52.210;21.112;2023-04-24T00:34:42;8.50;90.60
50989;DHT22;37008;52.210;21.112;2023-04-24T00:37:08;8.50;90.90
50989;DHT22;37008;52.210;21.112;2023-04-24T00:39:34;8.40;91.20
50989;DHT22;37008;52.210;21.112;2023-04-24T00:41:59;8.40;91.50
50989;DHT22;37008;52.210;21.112;2023-04-24T00:44:26;8.30;92.10
50989;DHT22;37008;52.210;21.112;2023-04-24T00:46:54;8.30;92.60
50989;DHT22;37008;52.210;21.112;2023-04-24T00:49:21;8.20;93.20
50989;DHT22;37008;52.210;21.112;2023-04-24T00:51:47;8.10;93.70
50989;DHT22;37008;52.210;21.112;2023-04-24T00:54:14;8.10;94.30
50989;DHT22;37008;52.210;21.112;2023-04-24T00:56:44;8.00;94.80
50989;DHT22;37008;52.210;21.112;2023-04-24T00:59:11;7.90;95.50
50989;DHT22;37008;52.210;21.112;2023-04-24T01:01:38;7.80;96.10
50989;DHT22;37008;52.210;21.112;2023-04-24T01:04:07;7.80;96.80
50989;DHT22;37008;52.210;21.112;2023-04-24T01:06:34;7.80;97.60
50989;DHT22;37008;52.210;21.112;2023-04-24T01:09:00;7.80;98.30
50989;DHT22;37008;52.210;21.112;2023-04-24T01:11:26;7.80;99.00
50989;DHT22;37008;52.210;21.112;2023-04-24T01:13:52;7.80;99.60
50989;DHT22;37008;52.210;21.112;2023-04-24T01:16:18;7.90;99.90
50989;DHT22;37008;52.210;21.112;2023-04-24T01:18:46;7.90;99.90
50989;DHT22;37008;52.210;21.112;2023-04-24T01:21:14;8.10;99.90
50989;DHT22;37008;52.210;21.112;2023-04-24T01:23:40;8.10;99.90
50989;DHT22;37008;52.210;21.112;2023-04-24T01:26:06;8.20;99.90
50989;DHT22;37008;52.210;21.112;2023-04-24T01:28:32;8.30;99.90
50989;DHT22;37008;52.210;21.112;2023-04-24T01:30:57;8.30;99.90
50989;DHT22;37008;52.210;21.112;2023-04-24T01:33:24;8.40;99.90
50989;DHT22;37008;52.210;21.112;2023-04-24T01:35:50;8.40;99.90
50989;DHT22;37008;52.210;21.112;2023-04-24T01:38:16;8.50;99.90
50989;DHT22;37008;52.210;21.112;2023-04-24T01:40:42;8.50;99.90
50989;DHT22;37008;52.210;21.112;2023-04-24T01:43:07;8.50;99.80
50989;DHT22;37008;52.210;21.112;2023-04-24T01:45:33;8.50;99.90
50989;DHT22;37008;52.210;21.112;2023-04-24T01:47:58;8.60;99.80
50989;DHT22;37008;52.210;21.112;2023-04-24T01:50:25;8.60;99.60
50989;DHT22;37008;52.210;21.112;2023-04-24T01:52:51;8.50;99.30
50989;DHT22;37008;52.210;21.112;2023-04-24T01:55:17;8.50;99.20
50989;DHT22;37008;52.210;21.112;2023-04-24T01:57:42;8.50;99.00
50989;DHT22;37008;52.210;21.112;2023-04-24T02:00:08;8.40;98.90
50989;DHT22;37008;52.210;21.112;2023-04-24T02:02:34;8.40;98.90
50989;DHT22;37008;52.210;21.112;2023-04-24T02:05:00;8.50;99.10
50989;DHT22;37008;52.210;21.112;2023-04-24T02:07:26;8.40;99.30
50989;DHT22;37008;52.210;21.112;2023-04-24T02:09:51;8.30;99.60
50989;DHT22;37008;52.210;21.112;2023-04-24T02:12:17;8.30;99.90
50989;DHT22;37008;52.210;21.112;2023-04-24T02:14:43;8.20;99.90
50989;DHT22;37008;52.210;21.112;2023-04-24T02:17:09;8.10;99.90
50989;DHT22;37008;52.210;21.112;2023-04-24T02:19:35;8.00;99.90
50989;DHT22;37008;52.210;21.112;2023-04-24T02:22:01;8.00;99.90
50989;DHT22;37008;52.210;21.112;2023-04-24T02:24:26;7.90;99.90
50989;DHT22;37008;52.210;21.112;2023-04-24T02:26:52;7.80;99.90
50989;DHT22;37008;52.210;21.112;2023-04-24T02:29:17;7.70;99.90
50989;DHT22;37008;52.210;21.112;2023-04-24T02:31:43;7.70;99.90
50989;DHT22;37008;52.210;21.112;2023-04-24T02:34:09;7.60;99.90
50989;DHT22;37008;52.210;21.112;2023-04-24T02:36:34;7.50;99.90
50989;DHT22;37008;52.210;21.112;2023-04-24T02:39:00;7.50;99.90
50989;DHT22;37008;52.210;21.112;2023-04-24T02:41:26;7.30;99.90
50989;DHT22;37008;52.210;21.112;2023-04-24T02:43:57;7.20;99.90
50989;DHT22;37008;52.210;21.112;2023-04-24T02:46:23;7.20;99.90
50989;DHT22;37008;52.210;21.112;2023-04-24T02:48:48;7.10;99.90
50989;DHT22;37008;52.210;21.112;2023-04-24T02:51:14;7.00;99.90
50989;DHT22;37008;52.210;21.112;2023-04-24T02:53:39;7.00;99.90
50989;DHT22;37008;52.210;21.112;2023-04-24T02:56:05;6.90;99.90
50989;DHT22;37008;52.210;21.112;2023-04-24T02:58:30;6.90;99.90
50989;DHT22;37008;52.210;21.112;2023-04-24T03:00:56;6.80;99.90
50989;DHT22;37008;52.210;21.112;2023-04-24T03:03:22;6.80;99.90
50989;DHT22;37008;52.210;21.112;2023-04-24T03:05:48;6.80;99.90
50989;DHT22;37008;52.210;21.112;2023-04-24T03:08:13;6.80;99.90
50989;DHT22;37008;52.210;21.112;2023-04-24T03:10:40;6.90;99.90
50989;DHT22;37008;52.210;21.112;2023-04-24T03:13:05;6.90;99.90
50989;DHT22;37008;52.210;21.112;2023-04-24T03:15:31;6.90;99.90
50989;DHT22;37008;52.210;21.112;2023-04-24T03:17:56;6.90;99.90
50989;DHT22;37008;52.210;21.112;2023-04-24T03:20:22;6.90;99.90
50989;DHT22;37008;52.210;21.112;2023-04-24T03:22:48;6.80;99.90
50989;DHT22;37008;52.210;21.112;2023-04-24T03:25:13;6.80;99.90
50989;DHT22;37008;52.210;21.112;2023-04-24T03:27:39;6.70;99.90
50989;DHT22;37008;52.210;21.112;2023-04-24T03:30:06;6.70;99.90
50989;DHT22;37008;52.210;21.112;2023-04-24T03:32:32;6.60;99.90
50989;DHT22;37008;52.210;21.112;2023-04-24T03:34:58;6.60;99.90
50989;DHT22;37008;52.210;21.112;2023-04-24T03:37:23;6.60;99.90
50989;DHT22;37008;52.210;21.112;2023-04-24T03:39:49;6.60;99.90
50989;DHT22;37008;52.210;21.112;2023-04-24T03:42:14;6.60;99.90
50989;DHT22;37008;52.210;21.112;2023-04-24T03:44:40;6.60;99.90
50989;DHT22;37008;52.210;21.112;2023-04-24T03:47:06;6.60;99.90
50989;DHT22;37008;52.210;21.112;2023-04-24T03:49:31;6.60;99.90
50989;DHT22;37008;52.210;21.112;2023-04-24T03:51:57;6.60;99.90
50989;DHT22;37008;52.210;21.112;2023-04-24T03:54:22;6.70;99.90
50989;DHT22;37008;52.210;21.112;2023-04-24T03:56:48;6.70;99.90
50989;DHT22;37008;52.210;21.112;2023-04-24T03:59:14;6.70;99.90
50989;DHT22;37008;52.210;21.112;2023-04-24T04:01:39;6.80;99.90
50989;DHT22;37008;52.210;21.112;2023-04-24T04:04:05;6.80;99.90
50989;DHT22;37008;52.210;21.112;2023-04-24T04:06:31;6.80;99.90
50989;DHT22;37008;52.210;21.112;2023-04-24T04:08:58;6.90;99.90
50989;DHT22;37008;52.210;21.112;2023-04-24T04:11:24;6.90;99.90
50989;DHT22;37008;52.210;21.112;2023-04-24T04:13:50;6.90;99.90
50989;DHT22;37008;52.210;21.112;2023-04-24T04:16:16;6.90;99.90
50989;DHT22;37008;52.210;21.112;2023-04-24T04:18:45;7.00;99.90
50989;DHT22;37008;52.210;21.112;2023-04-24T04:21:11;7.10;99.90
50989;DHT22;37008;52.210;21.112;2023-04-24T04:23:37;7.20;99.90
50989;DHT22;37008;52.210;21.112;2023-04-24T04:26:05;7.20;99.90
50989;DHT22;37008;52.210;21.112;2023-04-24T04:28:31;7.20;99.90
50989;DHT22;37008;52.210;21.112;2023-04-24T04:30:57;7.40;99.90
50989;DHT22;37008;52.210;21.112;2023-04-24T04:33:24;7.40;99.90
50989;DHT22;37008;52.210;21.112;2023-04-24T04:35:49;7.50;99.90
50989;DHT22;37008;52.210;21.112;2023-04-24T04:38:18;7.60;99.90
50989;DHT22;37008;52.210;21.112;2023-04-24T04:40:44;7.70;99.90
50989;DHT22;37008;52.210;21.112;2023-04-24T04:43:10;7.90;99.90
50989;DHT22;37008;52.210;21.112;2023-04-24T04:45:36;8.10;99.90
50989;DHT22;37008;52.210;21.112;2023-04-24T04:48:02;8.30;99.90
50989;DHT22;37008;52.210;21.112;2023-04-24T04:50:28;8.50;99.90
50989;DHT22;37008;52.210;21.112;2023-04-24T04:52:54;8.70;99.90
50989;DHT22;37008;52.210;21.112;2023-04-24T04:55:20;8.80;99.90
50989;DHT22;37008;52.210;21.112;2023-04-24T04:57:46;8.90;99.90
50989;DHT22;37008;52.210;21.112;2023-04-24T05:00:12;9.00;99.90
50989;DHT22;37008;52.210;21.112;2023-04-24T05:02:38;9.20;99.90
50989;DHT22;37008;52.210;21.112;2023-04-24T05:05:05;9.30;99.90
50989;DHT22;37008;52.210;21.112;2023-04-24T05:07:31;9.40;99.90
50989;DHT22;37008;52.210;21.112;2023-04-24T05:09:57;9.50;99.90
50989;DHT22;37008;52.210;21.112;2023-04-24T05:12:22;9.70;99.90
50989;DHT22;37008;52.210;21.112;2023-04-24T05:14:48;9.80;99.90
50989;DHT22;37008;52.210;21.112;2023-04-24T05:17:14;9.90;99.90
50989;DHT22;37008;52.210;21.112;2023-04-24T05:19:40;10.00;99.90
50989;DHT22;37008;52.210;21.112;2023-04-24T05:22:06;10.10;99.90
50989;DHT22;37008;52.210;21.112;2023-04-24T05:24:35;10.30;99.90
50989;DHT22;37008;52.210;21.112;2023-04-24T05:27:04;10.40;99.90
50989;DHT22;37008;52.210;21.112;2023-04-24T05:29:33;10.50;99.90
50989;DHT22;37008;52.210;21.112;2023-04-24T05:31:59;10.70;99.90
50989;DHT22;37008;52.210;21.112;2023-04-24T05:34:25;10.80;99.90
50989;DHT22;37008;52.210;21.112;2023-04-24T05:36:51;10.90;99.90
50989;DHT22;37008;52.210;21.112;2023-04-24T05:39:17;11.10;99.90
50989;DHT22;37008;52.210;21.112;2023-04-24T05:41:43;11.20;99.90
50989;DHT22;37008;52.210;21.112;2023-04-24T05:44:08;11.40;99.90
50989;DHT22;37008;52.210;21.112;2023-04-24T05:46:34;11.50;99.90
50989;DHT22;37008;52.210;21.112;2023-04-24T05:49:00;11.60;99.80
50989;DHT22;37008;52.210;21.112;2023-04-24T05:51:26;11.80;99.20
50989;DHT22;37008;52.210;21.112;2023-04-24T05:53:51;11.90;98.10
50989;DHT22;37008;52.210;21.112;2023-04-24T05:56:17;12.10;97.20
50989;DHT22;37008;52.210;21.112;2023-04-24T05:58:44;12.30;95.70
50989;DHT22;37008;52.210;21.112;2023-04-24T06:01:10;12.30;94.70
50989;DHT22;37008;52.210;21.112;2023-04-24T06:03:37;12.50;93.90
50989;DHT22;37008;52.210;21.112;2023-04-24T06:06:03;12.60;93.20
50989;DHT22;37008;52.210;21.112;2023-04-24T06:08:28;12.80;92.90
50989;DHT22;37008;52.210;21.112;2023-04-24T06:10:54;12.80;92.40
50989;DHT22;37008;52.210;21.112;2023-04-24T06:13:20;12.90;91.70
50989;DHT22;37008;52.210;21.112;2023-04-24T06:15:45;13.10;91.20
50989;DHT22;37008;52.210;21.112;2023-04-24T06:18:11;13.20;90.60
50989;DHT22;37008;52.210;21.112;2023-04-24T06:20:38;13.20;89.50
50989;DHT22;37008;52.210;21.112;2023-04-24T06:23:03;13.30;88.40
50989;DHT22;37008;52.210;21.112;2023-04-24T06:25:29;13.40;87.40
50989;DHT22;37008;52.210;21.112;2023-04-24T06:27:55;13.50;86.00
50989;DHT22;37008;52.210;21.112;2023-04-24T06:30:21;13.60;84.90
50989;DHT22;37008;52.210;21.112;2023-04-24T06:32:46;13.70;83.90
50989;DHT22;37008;52.210;21.112;2023-04-24T06:35:12;13.80;82.90
50989;DHT22;37008;52.210;21.112;2023-04-24T06:37:42;13.90;82.00
50989;DHT22;37008;52.210;21.112;2023-04-24T06:40:08;14.00;80.90
50989;DHT22;37008;52.210;21.112;2023-04-24T06:42:34;14.10;80.20
50989;DHT22;37008;52.210;21.112;2023-04-24T06:45:01;14.20;79.00
50989;DHT22;37008;52.210;21.112;2023-04-24T06:47:26;14.30;77.10
50989;DHT22;37008;52.210;21.112;2023-04-24T06:49:52;14.40;76.20
50989;DHT22;37008;52.210;21.112;2023-04-24T06:52:18;14.50;75.90
50989;DHT22;37008;52.210;21.112;2023-04-24T06:54:44;14.60;74.90
50989;DHT22;37008;52.210;21.112;2023-04-24T06:57:10;14.70;74.40
50989;DHT22;37008;52.210;21.112;2023-04-24T06:59:36;14.80;73.20
50989;DHT22;37008;52.210;21.112;2023-04-24T07:02:02;14.90;72.60
50989;DHT22;37008;52.210;21.112;2023-04-24T07:04:28;15.10;72.40
50989;DHT22;37008;52.210;21.112;2023-04-24T07:06:54;15.20;71.90
50989;DHT22;37008;52.210;21.112;2023-04-24T07:09:21;15.30;71.80
50989;DHT22;37008;52.210;21.112;2023-04-24T07:11:47;15.40;71.30
50989;DHT22;37008;52.210;21.112;2023-04-24T07:14:13;15.60;70.60
50989;DHT22;37008;52.210;21.112;2023-04-24T07:16:39;15.80;70.10
50989;DHT22;37008;52.210;21.112;2023-04-24T07:19:06;16.00;69.60
50989;DHT22;37008;52.210;21.112;2023-04-24T07:21:31;16.30;68.50
50989;DHT22;37008;52.210;21.112;2023-04-24T07:23:58;16.50;66.70
50989;DHT22;37008;52.210;21.112;2023-04-24T07:26:24;16.80;67.30
50989;DHT22;37008;52.210;21.112;2023-04-24T07:28:50;17.10;66.10
50989;DHT22;37008;52.210;21.112;2023-04-24T07:31:15;17.40;62.90
50989;DHT22;37008;52.210;21.112;2023-04-24T07:33:41;17.60;61.90
50989;DHT22;37008;52.210;21.112;2023-04-24T07:36:07;17.70;61.20
50989;DHT22;37008;52.210;21.112;2023-04-24T07:38:32;17.90;60.40
50989;DHT22;37008;52.210;21.112;2023-04-24T07:40:58;18.10;59.80
50989;DHT22;37008;52.210;21.112;2023-04-24T07:43:24;18.30;59.10
50989;DHT22;37008;52.210;21.112;2023-04-24T07:45:52;18.50;58.50
50989;DHT22;37008;52.210;21.112;2023-04-24T07:48:18;18.70;58.00
50989;DHT22;37008;52.210;21.112;2023-04-24T07:50:45;18.90;57.90
50989;DHT22;37008;52.210;21.112;2023-04-24T07:53:10;19.00;57.70
50989;DHT22;37008;52.210;21.112;2023-04-24T07:55:36;19.20;57.50
50989;DHT22;37008;52.210;21.112;2023-04-24T07:58:02;19.40;57.00
50989;DHT22;37008;52.210;21.112;2023-04-24T08:00:27;19.50;56.30
50989;DHT22;37008;52.210;21.112;2023-04-24T08:02:53;19.60;55.30
50989;DHT22;37008;52.210;21.112;2023-04-24T08:05:19;19.70;55.10
50989;DHT22;37008;52.210;21.112;2023-04-24T08:07:46;19.70;55.00
50989;DHT22;37008;52.210;21.112;2023-04-24T08:10:14;19.90;54.70
50989;DHT22;37008;52.210;21.112;2023-04-24T08:12:40;19.90;54.00
50989;DHT22;37008;52.210;21.112;2023-04-24T08:15:07;20.00;53.80
50989;DHT22;37008;52.210;21.112;2023-04-24T08:17:34;20.00;53.20
50989;DHT22;37008;52.210;21.112;2023-04-24T08:20:00;20.00;52.90
50989;DHT22;37008;52.210;21.112;2023-04-24T08:22:29;20.00;52.80
50989;DHT22;37008;52.210;21.112;2023-04-24T08:24:56;20.00;52.80
50989;DHT22;37008;52.210;21.112;2023-04-24T08:27:23;20.00;53.10
50989;DHT22;37008;52.210;21.112;2023-04-24T08:29:49;20.20;52.30
50989;DHT22;37008;52.210;21.112;2023-04-24T08:32:14;20.40;51.10
50989;DHT22;37008;52.210;21.112;2023-04-24T08:34:40;20.70;50.80
50989;DHT22;37008;52.210;21.112;2023-04-24T08:37:06;21.00;50.20
50989;DHT22;37008;52.210;21.112;2023-04-24T08:39:31;21.10;49.40
50989;DHT22;37008;52.210;21.112;2023-04-24T08:41:57;21.30;48.60
50989;DHT22;37008;52.210;21.112;2023-04-24T08:44:31;21.30;48.30
50989;DHT22;37008;52.210;21.112;2023-04-24T08:46:57;21.40;48.50
50989;DHT22;37008;52.210;21.112;2023-04-24T08:49:24;21.40;48.00
50989;DHT22;37008;52.210;21.112;2023-04-24T08:51:52;21.50;46.90
50989;DHT22;37008;52.210;21.112;2023-04-24T08:54:18;21.60;46.50
50989;DHT22;37008;52.210;21.112;2023-04-24T08:56:44;21.70;45.60
50989;DHT22;37008;52.210;21.112;2023-04-24T08:59:10;21.70;44.90
50989;DHT22;37008;52.210;21.112;2023-04-24T09:01:37;21.80;44.20
50989;DHT22;37008;52.210;21.112;2023-04-24T09:04:07;21.90;44.20
50989;DHT22;37008;52.210;21.112;2023-04-24T09:06:33;22.00;45.60
50989;DHT22;37008;52.210;21.112;2023-04-24T09:09:03;22.20;44.60
50989;DHT22;37008;52.210;21.112;2023-04-24T09:11:31;22.40;43.80
50989;DHT22;37008;52.210;21.112;2023-04-24T09:13:58;22.60;43.10
50989;DHT22;37008;52.210;21.112;2023-04-24T09:16:25;22.80;43.10
50989;DHT22;37008;52.210;21.112;2023-04-24T09:18:52;23.00;42.80
50989;DHT22;37008;52.210;21.112;2023-04-24T09:21:20;23.00;42.80
50989;DHT22;37008;52.210;21.112;2023-04-24T09:23:46;23.10;43.90
50989;DHT22;37008;52.210;21.112;2023-04-24T09:26:12;23.20;44.00
50989;DHT22;37008;52.210;21.112;2023-04-24T09:28:40;23.40;44.00
50989;DHT22;37008;52.210;21.112;2023-04-24T09:31:11;23.40;44.00
50989;DHT22;37008;52.210;21.112;2023-04-24T09:33:38;23.40;43.60
50989;DHT22;37008;52.210;21.112;2023-04-24T09:36:04;23.30;44.00
50989;DHT22;37008;52.210;21.112;2023-04-24T09:38:35;23.20;43.70
50989;DHT22;37008;52.210;21.112;2023-04-24T09:41:03;23.10;43.80
50989;DHT22;37008;52.210;21.112;2023-04-24T09:43:30;23.10;44.70
50989;DHT22;37008;52.210;21.112;2023-04-24T09:45:57;23.10;46.10
50989;DHT22;37008;52.210;21.112;2023-04-24T09:48:31;23.20;46.30
50989;DHT22;37008;52.210;21.112;2023-04-24T09:50:58;23.20;46.60
50989;DHT22;37008;52.210;21.112;2023-04-24T09:53:25;23.20;44.80
50989;DHT22;37008;52.210;21.112;2023-04-24T09:55:51;23.00;44.70
50989;DHT22;37008;52.210;21.112;2023-04-24T09:58:24;22.80;45.70
50989;DHT22;37008;52.210;21.112;2023-04-24T10:00:50;22.70;46.60
50989;DHT22;37008;52.210;21.112;2023-04-24T10:03:18;22.60;46.50
50989;DHT22;37008;52.210;21.112;2023-04-24T10:05:46;22.50;46.40
50989;DHT22;37008;52.210;21.112;2023-04-24T10:08:12;22.40;47.30
50989;DHT22;37008;52.210;21.112;2023-04-24T10:10:40;22.40;48.50
50989;DHT22;37008;52.210;21.112;2023-04-24T10:13:08;22.40;48.70
50989;DHT22;37008;52.210;21.112;2023-04-24T10:15:34;22.40;48.20
50989;DHT22;37008;52.210;21.112;2023-04-24T10:18:00;22.40;48.20
50989;DHT22;37008;52.210;21.112;2023-04-24T10:20:29;22.40;48.20
50989;DHT22;37008;52.210;21.112;2023-04-24T10:22:57;22.40;48.20
50989;DHT22;37008;52.210;21.112;2023-04-24T10:25:25;22.30;45.20
50989;DHT22;37008;52.210;21.112;2023-04-24T10:27:52;22.20;45.20
50989;DHT22;37008;52.210;21.112;2023-04-24T10:30:19;22.10;45.50
50989;DHT22;37008;52.210;21.112;2023-04-24T10:32:45;21.90;46.00
50989;DHT22;37008;52.210;21.112;2023-04-24T10:35:15;21.90;45.90
50989;DHT22;37008;52.210;21.112;2023-04-24T10:37:44;21.90;46.10
50989;DHT22;37008;52.210;21.112;2023-04-24T10:40:12;22.00;45.60
50989;DHT22;37008;52.210;21.112;2023-04-24T10:42:41;22.10;44.90
50989;DHT22;37008;52.210;21.112;2023-04-24T10:45:20;22.10;44.80
50989;DHT22;37008;52.210;21.112;2023-04-24T10:48:07;22.20;44.50
50989;DHT22;37008;52.210;21.112;2023-04-24T10:50:52;22.20;44.80
50989;DHT22;37008;52.210;21.112;2023-04-24T10:53:22;22.40;44.20
50989;DHT22;37008;52.210;21.112;2023-04-24T10:56:05;22.40;44.40
50989;DHT22;37008;52.210;21.112;2023-04-24T10:58:49;22.50;45.20
50989;DHT22;37008;52.210;21.112;2023-04-24T11:01:33;22.60;44.20
50989;DHT22;37008;52.210;21.112;2023-04-24T11:04:01;22.60;44.10
50989;DHT22;37008;52.210;21.112;2023-04-24T11:09:08;22.80;44.70
50989;DHT22;37008;52.210;21.112;2023-04-24T11:11:36;22.80;43.90
50989;DHT22;37008;52.210;21.112;2023-04-24T11:14:04;22.90;43.00
50989;DHT22;37008;52.210;21.112;2023-04-24T11:16:54;23.00;42.20
50989;DHT22;37008;52.210;21.112;2023-04-24T11:19:26;23.10;41.90
50989;DHT22;37008;52.210;21.112;2023-04-24T11:22:01;23.10;41.10
50989;DHT22;37008;52.210;21.112;2023-04-24T11:37:29;23.40;42.80
50989;DHT22;37008;52.210;21.112;2023-04-24T11:39:57;23.50;42.70
50989;DHT22;37008;52.210;21.112;2023-04-24T11:42:23;23.40;42.20
50989;DHT22;37008;52.210;21.112;2023-04-24T11:44:52;23.40;42.10
50989;DHT22;37008;52.210;21.112;2023-04-24T11:47:18;23.50;41.40
50989;DHT22;37008;52.210;21.112;2023-04-24T11:49:44;23.60;41.70
50989;DHT22;37008;52.210;21.112;2023-04-24T11:52:09;23.60;42.30
50989;DHT22;37008;52.210;21.112;2023-04-24T11:54:36;23.70;42.20
50989;DHT22;37008;52.210;21.112;2023-04-24T11:57:04;23.70;41.20
50989;DHT22;37008;52.210;21.112;2023-04-24T11:59:36;23.70;40.90
50989;DHT22;37008;52.210;21.112;2023-04-24T12:02:02;23.80;40.90
50989;DHT22;37008;52.210;21.112;2023-04-24T12:04:41;23.80;41.30
50989;DHT22;37008;52.210;21.112;2023-04-24T12:07:07;23.90;42.00
50989;DHT22;37008;52.210;21.112;2023-04-24T12:09:59;24.00;41.00
50989;DHT22;37008;52.210;21.112;2023-04-24T12:12:28;24.00;41.00
50989;DHT22;37008;52.210;21.112;2023-04-24T12:17:27;24.10;40.70
50989;DHT22;37008;52.210;21.112;2023-04-24T12:20:01;24.10;40.60
50989;DHT22;37008;52.210;21.112;2023-04-24T12:22:28;24.10;40.70
50989;DHT22;37008;52.210;21.112;2023-04-24T12:25:02;24.10;40.00
50989;DHT22;37008;52.210;21.112;2023-04-24T12:27:32;24.10;40.20
50989;DHT22;37008;52.210;21.112;2023-04-24T12:30:00;24.10;39.70
50989;DHT22;37008;52.210;21.112;2023-04-24T12:32:26;24.10;40.40
50989;DHT22;37008;52.210;21.112;2023-04-24T12:34:52;24.10;39.70
50989;DHT22;37008;52.210;21.112;2023-04-24T12:37:18;24.10;40.30
50989;DHT22;37008;52.210;21.112;2023-04-24T12:39:59;24.10;40.20
50989;DHT22;37008;52.210;21.112;2023-04-24T12:42:27;24.10;39.90
50989;DHT22;37008;52.210;21.112;2023-04-24T12:44:57;24.10;40.00
50989;DHT22;37008;52.210;21.112;2023-04-24T12:47:24;24.10;40.60
50989;DHT22;37008;52.210;21.112;2023-04-24T12:49:50;24.10;40.30
50989;DHT22;37008;52.210;21.112;2023-04-24T12:52:18;24.00;39.50
50989;DHT22;37008;52.210;21.112;2023-04-24T12:54:45;23.90;38.70
50989;DHT22;37008;52.210;21.112;2023-04-24T12:57:11;23.50;38.70
50989;DHT22;37008;52.210;21.112;2023-04-24T12:59:36;23.20;39.40
50989;DHT22;37008;52.210;21.112;2023-04-24T13:02:02;23.00;39.80
50989;DHT22;37008;52.210;21.112;2023-04-24T13:04:28;22.70;40.00
50989;DHT22;37008;52.210;21.112;2023-04-24T13:06:53;22.40;40.90
50989;DHT22;37008;52.210;21.112;2023-04-24T13:09:19;22.20;41.20
50989;DHT22;37008;52.210;21.112;2023-04-24T13:11:45;22.00;41.40
50989;DHT22;37008;52.210;21.112;2023-04-24T13:14:10;21.80;41.90
50989;DHT22;37008;52.210;21.112;2023-04-24T13:16:36;21.70;42.50
50989;DHT22;37008;52.210;21.112;2023-04-24T13:19:01;21.70;42.80
50989;DHT22;37008;52.210;21.112;2023-04-24T13:21:27;21.70;42.90
50989;DHT22;37008;52.210;21.112;2023-04-24T13:23:53;21.70;42.40
50989;DHT22;37008;52.210;21.112;2023-04-24T13:26:18;21.70;42.00
50989;DHT22;37008;52.210;21.112;2023-04-24T13:28:44;21.70;41.70
50989;DHT22;37008;52.210;21.112;2023-04-24T13:31:10;21.80;42.40
50989;DHT22;37008;52.210;21.112;2023-04-24T13:33:35;22.00;42.60
50989;DHT22;37008;52.210;21.112;2023-04-24T13:36:01;22.10;42.20
50989;DHT22;37008;52.210;21.112;2023-04-24T13:38:26;22.40;41.90
50989;DHT22;37008;52.210;21.112;2023-04-24T13:40:52;22.60;41.60
50989;DHT22;37008;52.210;21.112;2023-04-24T13:43:18;22.50;41.40
50989;DHT22;37008;52.210;21.112;2023-04-24T13:45:43;22.30;41.80
50989;DHT22;37008;52.210;21.112;2023-04-24T13:48:09;21.90;42.40
50989;DHT22;37008;52.210;21.112;2023-04-24T13:50:35;21.60;43.10
50989;DHT22;37008;52.210;21.112;2023-04-24T13:53:02;21.60;43.80
50989;DHT22;37008;52.210;21.112;2023-04-24T13:55:28;21.60;44.30
50989;DHT22;37008;52.210;21.112;2023-04-24T13:57:54;21.60;43.60
50989;DHT22;37008;52.210;21.112;2023-04-24T14:00:20;21.50;43.20
50989;DHT22;37008;52.210;21.112;2023-04-24T14:02:46;21.50;43.30
50989;DHT22;37008;52.210;21.112;2023-04-24T14:05:13;21.40;43.90
50989;DHT22;37008;52.210;21.112;2023-04-24T14:07:40;21.20;44.40
50989;DHT22;37008;52.210;21.112;2023-04-24T14:10:07;21.20;45.00
50989;DHT22;37008;52.210;21.112;2023-04-24T14:12:33;21.10;45.50
50989;DHT22;37008;52.210;21.112;2023-04-24T14:14:59;21.10;45.60
50989;DHT22;37008;52.210;21.112;2023-04-24T14:17:26;21.20;45.50
50989;DHT22;37008;52.210;21.112;2023-04-24T14:19:52;21.40;45.40
50989;DHT22;37008;52.210;21.112;2023-04-24T14:22:21;21.70;45.20
50989;DHT22;37008;52.210;21.112;2023-04-24T14:24:47;22.20;43.40
50989;DHT22;37008;52.210;21.112;2023-04-24T14:27:13;22.80;41.70
50989;DHT22;37008;52.210;21.112;2023-04-24T14:29:38;23.60;40.70
50989;DHT22;37008;52.210;21.112;2023-04-24T14:32:04;24.70;39.40
50989;DHT22;37008;52.210;21.112;2023-04-24T14:34:29;26.00;37.20
50989;DHT22;37008;52.210;21.112;2023-04-24T14:36:55;27.20;34.30
50989;DHT22;37008;52.210;21.112;2023-04-24T14:39:21;28.20;32.30
50989;DHT22;37008;52.210;21.112;2023-04-24T14:41:48;29.00;30.30
50989;DHT22;37008;52.210;21.112;2023-04-24T14:44:13;28.80;29.20
50989;DHT22;37008;52.210;21.112;2023-04-24T14:46:39;28.30;29.90
50989;DHT22;37008;52.210;21.112;2023-04-24T14:49:04;28.40;29.50
50989;DHT22;37008;52.210;21.112;2023-04-24T14:51:30;28.20;29.20
50989;DHT22;37008;52.210;21.112;2023-04-24T14:53:56;27.50;29.70
50989;DHT22;37008;52.210;21.112;2023-04-24T14:56:22;26.90;30.60
50989;DHT22;37008;52.210;21.112;2023-04-24T14:58:48;26.10;31.70
50989;DHT22;37008;52.210;21.112;2023-04-24T15:01:14;25.40;33.30
50989;DHT22;37008;52.210;21.112;2023-04-24T15:03:39;24.70;34.50
50989;DHT22;37008;52.210;21.112;2023-04-24T15:06:05;24.20;35.30
50989;DHT22;37008;52.210;21.112;2023-04-24T15:08:31;23.60;36.60
50989;DHT22;37008;52.210;21.112;2023-04-24T15:10:56;23.10;37.90
50989;DHT22;37008;52.210;21.112;2023-04-24T15:13:22;23.00;38.60
50989;DHT22;37008;52.210;21.112;2023-04-24T15:15:48;22.80;39.20
50989;DHT22;37008;52.210;21.112;2023-04-24T15:18:13;22.40;40.40
50989;DHT22;37008;52.210;21.112;2023-04-24T15:20:39;22.00;42.20
50989;DHT22;37008;52.210;21.112;2023-04-24T15:23:09;21.70;42.90
50989;DHT22;37008;52.210;21.112;2023-04-24T15:25:35;21.40;43.60
50989;DHT22;37008;52.210;21.112;2023-04-24T15:28:00;21.00;45.00
50989;DHT22;37008;52.210;21.112;2023-04-24T15:30:27;20.80;45.10
50989;DHT22;37008;52.210;21.112;2023-04-24T15:32:53;20.60;45.50
50989;DHT22;37008;52.210;21.112;2023-04-24T15:35:18;21.00;46.30